createdAt,value
2022-10-14T00:00:36.126Z,11.37
2022-10-14T00:01:36.156Z,11.41
2022-10-14T00:02:36.106Z,11.36
2022-10-14T00:03:36.112Z,11.32
2022-10-14T00:04:36.075Z,11.37
2022-10-14T00:05:36.088Z,11.27
2022-10-14T00:06:36.070Z,11.35
2022-10-14T00:07:36.068Z,11.26
2022-10-14T00:08:36.069Z,11.27
2022-10-14T00:09:36.090Z,11.25
2022-10-14T00:10:36.062Z,11.25
2022-10-14T00:11:36.063Z,11.18
2022-10-14T00:12:36.068Z,11.23
2022-10-14T00:13:36.037Z,11.25
2022-10-14T00:14:36.038Z,11.22
2022-10-14T00:15:36.031Z,11.22
2022-10-14T00:16:36.093Z,11.25
2022-10-14T00:17:36.016Z,11.25
2022-10-14T00:18:36.022Z,11.18
2022-10-14T00:19:36.028Z,11.27
2022-10-14T00:20:36.007Z,11.27
2022-10-14T00:21:36.019Z,11.19
2022-10-14T00:22:36.016Z,11.27
2022-10-14T00:23:36.002Z,11.26
2022-10-14T00:24:36.028Z,11.18
2022-10-14T00:25:35.990Z,11.17
2022-10-14T00:26:35.983Z,11.12
2022-10-14T00:27:35.987Z,11.14
2022-10-14T00:28:36.014Z,11.08
2022-10-14T00:29:35.979Z,11.11
2022-10-14T00:30:35.969Z,11.12
2022-10-14T00:31:35.993Z,11.10
2022-10-14T00:32:35.964Z,11.23
2022-10-14T00:33:35.953Z,11.18
2022-10-14T00:34:35.952Z,11.17
2022-10-14T00:35:36.033Z,11.23
2022-10-14T00:36:35.938Z,11.18
2022-10-14T00:37:35.942Z,11.10
2022-10-14T00:38:35.943Z,11.18
2022-10-14T00:39:35.953Z,11.17
2022-10-14T00:40:35.947Z,11.17
2022-10-14T00:41:35.931Z,11.00
2022-10-14T00:42:35.911Z,11.02
2022-10-14T00:43:35.913Z,11.02
2022-10-14T00:44:35.912Z,11.07
2022-10-14T00:45:35.904Z,11.12
2022-10-14T00:46:35.901Z,11.14
2022-10-14T00:47:35.922Z,11.12
2022-10-14T00:48:35.926Z,11.10
2022-10-14T00:49:35.907Z,11.08
2022-10-14T00:50:35.881Z,11.10
2022-10-14T00:51:35.877Z,11.07
2022-10-14T00:52:35.875Z,11.12
2022-10-14T00:53:35.868Z,10.99
2022-10-14T00:54:35.906Z,10.99
2022-10-14T00:55:35.872Z,10.99
2022-10-14T00:56:35.866Z,10.94
2022-10-14T00:57:35.890Z,10.93
2022-10-14T00:58:35.855Z,10.97
2022-10-14T00:59:35.869Z,10.97
2022-10-14T01:00:35.871Z,10.93
2022-10-14T01:01:35.845Z,11.02
2022-10-14T01:02:35.945Z,10.93
2022-10-14T01:03:35.873Z,10.99
2022-10-14T01:04:35.853Z,10.89
2022-10-14T01:05:35.899Z,10.94
2022-10-14T01:06:35.821Z,10.93
2022-10-14T01:07:35.836Z,10.90
2022-10-14T01:08:35.858Z,11.00
2022-10-14T01:09:35.806Z,10.94
2022-10-14T01:10:35.798Z,11.05
2022-10-14T01:11:35.819Z,10.93
2022-10-14T01:12:35.803Z,10.94
2022-10-14T01:13:35.904Z,10.99
2022-10-14T01:14:35.795Z,11.02
2022-10-14T01:15:35.803Z,11.07
2022-10-14T01:16:35.943Z,10.93
2022-10-14T01:17:35.766Z,11.02
2022-10-14T01:18:35.754Z,11.02
2022-10-14T01:19:35.772Z,10.97
2022-10-14T01:20:35.755Z,10.89
2022-10-14T01:21:35.761Z,10.90
2022-10-14T01:22:35.746Z,10.89
2022-10-14T01:23:35.743Z,10.89
2022-10-14T01:24:35.745Z,10.87
2022-10-14T01:25:35.752Z,10.96
2022-10-14T01:26:35.723Z,10.90
2022-10-14T01:27:35.752Z,10.86
2022-10-14T01:28:35.816Z,10.86
2022-10-14T01:29:35.719Z,10.87
2022-10-14T01:30:35.712Z,10.86
2022-10-14T01:31:35.699Z,10.84
2022-10-14T01:32:35.723Z,10.97
2022-10-14T01:33:35.709Z,10.86
2022-10-14T01:34:35.691Z,10.87
2022-10-14T01:35:35.694Z,10.84
2022-10-14T01:36:35.686Z,10.87
2022-10-14T01:37:35.699Z,10.89
2022-10-14T01:38:35.719Z,10.94
2022-10-14T01:39:35.691Z,10.93
2022-10-14T01:40:35.672Z,10.89
2022-10-14T01:41:35.670Z,10.86
2022-10-14T01:42:35.680Z,10.87
2022-10-14T01:43:35.663Z,10.86
2022-10-14T01:44:35.640Z,10.87
2022-10-14T01:45:35.635Z,10.90
2022-10-14T01:46:35.633Z,10.84
2022-10-14T01:47:35.638Z,10.94
2022-10-14T01:48:35.673Z,10.84
2022-10-14T01:49:35.634Z,10.84
2022-10-14T01:50:35.634Z,10.87
2022-10-14T01:51:35.632Z,10.79
2022-10-14T01:52:35.622Z,10.84
2022-10-14T01:53:35.617Z,10.87
2022-10-14T01:54:35.639Z,10.79
2022-10-14T01:55:35.599Z,10.79
2022-10-14T01:56:39.635Z,10.72
2022-10-14T01:57:35.588Z,10.76
2022-10-14T01:58:35.589Z,10.78
2022-10-14T01:59:35.593Z,10.72
2022-10-14T02:00:35.583Z,10.71
2022-10-14T02:01:35.620Z,10.76
2022-10-14T02:02:35.573Z,10.72
2022-10-14T02:03:35.592Z,10.68
2022-10-14T02:04:35.557Z,10.67
2022-10-14T02:05:35.553Z,10.69
2022-10-14T02:06:35.554Z,10.68
2022-10-14T02:07:35.560Z,10.69
2022-10-14T02:08:35.551Z,10.74
2022-10-14T02:09:35.539Z,10.69
2022-10-14T02:10:35.545Z,10.68
2022-10-14T02:11:35.534Z,10.68
2022-10-14T02:12:35.524Z,10.69
2022-10-14T02:13:35.516Z,10.71
2022-10-14T02:14:35.528Z,10.56
2022-10-14T02:15:35.502Z,10.68
2022-10-14T02:16:35.515Z,10.63
2022-10-14T02:17:35.514Z,10.60
2022-10-14T02:18:35.517Z,10.57
2022-10-14T02:19:35.487Z,10.63
2022-10-14T02:20:35.489Z,10.59
2022-10-14T02:21:35.477Z,10.51
2022-10-14T02:22:35.471Z,10.54
2022-10-14T02:23:35.515Z,10.60
2022-10-14T02:24:35.472Z,10.63
2022-10-14T02:25:35.475Z,10.49
2022-10-14T02:26:35.467Z,10.54
2022-10-14T02:27:35.455Z,10.53
2022-10-14T02:28:35.529Z,10.57
2022-10-14T02:29:35.440Z,10.59
2022-10-14T02:30:35.451Z,10.53
2022-10-14T02:31:35.432Z,10.53
2022-10-14T02:32:35.434Z,10.48
2022-10-14T02:33:35.429Z,10.44
2022-10-14T02:34:35.454Z,10.54
2022-10-14T02:35:35.418Z,10.56
2022-10-14T02:36:35.440Z,10.48
2022-10-14T02:37:35.414Z,10.46
2022-10-14T02:38:35.398Z,10.48
2022-10-14T02:39:35.413Z,10.49
2022-10-14T02:40:35.397Z,10.53
2022-10-14T02:41:35.385Z,10.51
2022-10-14T02:42:35.386Z,10.56
2022-10-14T02:43:35.391Z,10.53
2022-10-14T02:44:35.387Z,10.54
2022-10-14T02:45:35.389Z,10.44
2022-10-14T02:46:35.376Z,10.59
2022-10-14T02:47:35.391Z,10.59
2022-10-14T02:48:35.348Z,10.57
2022-10-14T02:49:35.373Z,10.56
2022-10-14T02:50:35.349Z,10.60
2022-10-14T02:51:35.335Z,10.63
2022-10-14T02:52:35.346Z,10.63
2022-10-14T02:53:35.354Z,10.60
2022-10-14T02:54:35.329Z,10.61
2022-10-14T02:55:35.323Z,10.72
2022-10-14T02:56:35.346Z,10.71
2022-10-14T02:57:35.333Z,10.71
2022-10-14T02:58:35.304Z,10.74
2022-10-14T02:59:35.302Z,10.72
2022-10-14T03:00:35.298Z,10.79
2022-10-14T03:01:37.763Z,10.81
2022-10-14T03:02:35.294Z,10.79
2022-10-14T03:03:35.309Z,10.74
2022-10-14T03:04:35.311Z,10.76
2022-10-14T03:05:35.290Z,10.79
2022-10-14T03:06:35.279Z,10.78
2022-10-14T03:07:35.264Z,10.75
2022-10-14T03:08:35.259Z,10.81
2022-10-14T03:09:35.256Z,10.76
2022-10-14T03:10:35.260Z,10.89
2022-10-14T03:11:35.267Z,10.84
2022-10-14T03:12:35.269Z,10.82
2022-10-14T03:13:35.285Z,10.84
2022-10-14T03:14:35.303Z,10.86
2022-10-14T03:15:35.225Z,10.90
2022-10-14T03:16:35.237Z,10.92
2022-10-14T03:17:35.302Z,10.92
2022-10-14T03:18:35.217Z,10.92
2022-10-14T03:19:35.214Z,10.96
2022-10-14T03:20:35.222Z,10.92
2022-10-14T03:21:35.224Z,10.97
2022-10-14T03:22:35.233Z,11.02
2022-10-14T03:23:35.190Z,10.90
2022-10-14T03:24:35.189Z,10.92
2022-10-14T03:25:35.190Z,11.02
2022-10-14T03:26:35.191Z,11.00
2022-10-14T03:27:35.177Z,10.94
2022-10-14T03:28:35.231Z,10.94
2022-10-14T03:29:35.171Z,10.97
2022-10-14T03:30:35.192Z,10.92
2022-10-14T03:31:35.198Z,11.00
2022-10-14T03:32:35.159Z,10.92
2022-10-14T03:33:35.159Z,10.87
2022-10-14T03:34:35.148Z,10.90
2022-10-14T03:35:35.143Z,10.90
2022-10-14T03:36:35.134Z,10.93
2022-10-14T03:37:35.132Z,10.90
2022-10-14T03:38:35.135Z,10.89
2022-10-14T03:39:35.135Z,10.86
2022-10-14T03:40:35.143Z,10.86
2022-10-14T03:41:35.108Z,10.86
2022-10-14T03:42:35.104Z,10.89
2022-10-14T03:43:35.106Z,10.84
2022-10-14T03:44:35.102Z,10.84
2022-10-14T03:45:35.097Z,10.86
2022-10-14T03:46:35.119Z,10.82
2022-10-14T03:47:35.099Z,10.75
2022-10-14T03:48:35.111Z,10.86
2022-10-14T03:49:35.108Z,10.78
2022-10-14T03:50:35.080Z,10.87
2022-10-14T03:51:35.089Z,10.89
2022-10-14T03:52:35.073Z,10.89
2022-10-14T03:53:35.055Z,10.89
2022-10-14T03:54:35.072Z,10.87
2022-10-14T03:55:35.066Z,10.86
2022-10-14T03:56:35.067Z,10.89
2022-10-14T03:57:35.061Z,10.89
2022-10-14T03:58:35.063Z,10.86
2022-10-14T03:59:35.037Z,10.82
2022-10-14T04:00:35.041Z,10.89
2022-10-14T04:01:35.081Z,10.86
2022-10-14T04:02:35.027Z,10.84
2022-10-14T04:03:35.018Z,10.86
2022-10-14T04:04:35.019Z,10.84
2022-10-14T04:05:35.040Z,10.82
2022-10-14T04:06:35.029Z,10.87
2022-10-14T04:07:35.039Z,10.87
2022-10-14T04:08:35.052Z,10.84
2022-10-14T04:09:35.039Z,10.81
2022-10-14T04:10:35.002Z,10.74
2022-10-14T04:11:34.972Z,10.78
2022-10-14T04:12:34.993Z,10.76
2022-10-14T04:13:34.993Z,10.74
2022-10-14T04:14:34.981Z,10.79
2022-10-14T04:15:34.968Z,10.79
2022-10-14T04:16:34.984Z,10.75
2022-10-14T04:17:34.988Z,10.78
2022-10-14T04:18:34.995Z,10.78
2022-10-14T04:19:34.946Z,10.76
2022-10-14T04:20:34.946Z,10.76
2022-10-14T04:21:34.949Z,10.74
2022-10-14T04:22:34.944Z,10.79
2022-10-14T04:23:34.935Z,10.81
2022-10-14T04:24:34.947Z,10.76
2022-10-14T04:25:34.944Z,10.79
2022-10-14T04:26:34.924Z,10.71
2022-10-14T04:27:34.942Z,10.81
2022-10-14T04:28:34.982Z,10.75
2022-10-14T04:29:34.931Z,10.82
2022-10-14T04:30:34.904Z,10.81
2022-10-14T04:31:34.908Z,10.72
2022-10-14T04:32:34.902Z,10.75
2022-10-14T04:33:34.898Z,10.81
2022-10-14T04:34:34.893Z,10.75
2022-10-14T04:35:34.875Z,10.78
2022-10-14T04:36:34.875Z,10.76
2022-10-14T04:37:34.879Z,10.81
2022-10-14T04:38:34.867Z,10.79
2022-10-14T04:39:34.852Z,10.76
2022-10-14T04:40:34.866Z,10.72
2022-10-14T04:41:34.857Z,10.78
2022-10-14T04:42:34.872Z,10.68
2022-10-14T04:43:34.867Z,10.71
2022-10-14T04:44:34.834Z,10.74
2022-10-14T04:45:34.821Z,10.71
2022-10-14T04:46:34.869Z,10.72
2022-10-14T04:47:34.819Z,10.72
2022-10-14T04:48:34.837Z,10.76
2022-10-14T04:49:34.832Z,10.72
2022-10-14T04:50:34.802Z,10.69
2022-10-14T04:51:34.819Z,10.76
2022-10-14T04:52:34.796Z,10.69
2022-10-14T04:53:34.791Z,10.71
2022-10-14T04:54:34.788Z,10.71
2022-10-14T04:55:34.775Z,10.71
2022-10-14T04:56:34.778Z,10.72
2022-10-14T04:57:34.791Z,10.71
2022-10-14T04:58:34.788Z,10.76
2022-10-14T04:59:34.787Z,10.79
2022-10-14T05:00:34.774Z,10.75
2022-10-14T05:01:34.807Z,10.79
2022-10-14T05:02:34.739Z,10.81
2022-10-14T05:03:34.747Z,10.78
2022-10-14T05:04:34.761Z,10.79
2022-10-14T05:05:34.741Z,10.79
2022-10-14T05:06:34.750Z,10.75
2022-10-14T05:07:34.751Z,10.75
2022-10-14T05:08:34.743Z,10.87
2022-10-14T05:09:34.744Z,10.81
2022-10-14T05:10:34.741Z,10.81
2022-10-14T05:11:34.742Z,10.81
2022-10-14T05:12:34.707Z,10.79
2022-10-14T05:13:34.699Z,10.79
2022-10-14T05:14:34.708Z,10.84
2022-10-14T05:15:34.699Z,10.84
2022-10-14T05:16:34.684Z,10.86
2022-10-14T05:17:34.680Z,10.84
2022-10-14T05:18:34.671Z,10.82
2022-10-14T05:19:34.674Z,10.82
2022-10-14T05:20:34.704Z,10.84
2022-10-14T05:21:34.666Z,10.87
2022-10-14T05:22:34.658Z,10.87
2022-10-14T05:23:34.661Z,10.89
2022-10-14T05:24:34.659Z,10.90
2022-10-14T05:25:34.664Z,10.87
2022-10-14T05:26:34.696Z,10.86
2022-10-14T05:27:34.644Z,10.87
2022-10-14T05:28:34.675Z,10.89
2022-10-14T05:29:34.634Z,10.87
2022-10-14T05:30:35.066Z,11.04
2022-10-14T05:31:34.666Z,10.93
2022-10-14T05:32:34.640Z,10.93
2022-10-14T05:33:34.615Z,11.00
2022-10-14T05:34:34.622Z,10.93
2022-10-14T05:35:57.538Z,11.05
2022-10-14T05:36:34.602Z,10.90
2022-10-14T05:37:34.610Z,11.11
2022-10-14T05:38:34.601Z,11.07
2022-10-14T05:39:34.579Z,11.05
2022-10-14T05:40:34.577Z,11.05
2022-10-14T05:41:34.572Z,11.08
2022-10-14T05:42:34.591Z,11.08
2022-10-14T05:43:34.583Z,11.11
2022-10-14T05:44:34.582Z,11.18
2022-10-14T05:45:34.590Z,11.18
2022-10-14T05:46:34.557Z,11.23
2022-10-14T05:47:34.545Z,11.17
2022-10-14T05:48:34.535Z,11.25
2022-10-14T05:49:34.532Z,11.23
2022-10-14T05:50:34.534Z,11.23
2022-10-14T05:51:34.546Z,11.22
2022-10-14T05:52:34.535Z,11.11
2022-10-14T05:53:34.548Z,11.26
2022-10-14T05:54:34.534Z,11.18
2022-10-14T05:55:34.507Z,11.18
2022-10-14T05:56:34.506Z,11.22
2022-10-14T05:57:34.507Z,11.22
2022-10-14T05:58:34.538Z,11.25
2022-10-14T05:59:34.508Z,11.27
2022-10-14T06:00:34.513Z,11.19
2022-10-14T06:01:34.512Z,11.19
2022-10-14T06:02:34.508Z,11.32
2022-10-14T06:03:34.522Z,11.37
2022-10-14T06:04:34.480Z,11.32
2022-10-14T06:05:34.486Z,11.36
2022-10-14T06:06:34.478Z,11.43
2022-10-14T06:07:34.471Z,11.36
2022-10-14T06:08:34.489Z,11.35
2022-10-14T06:09:34.463Z,11.37
2022-10-14T06:10:34.463Z,11.47
2022-10-14T06:11:34.491Z,11.48
2022-10-14T06:12:34.480Z,11.50
2022-10-14T06:13:34.472Z,11.48
2022-10-14T06:14:34.479Z,11.45
2022-10-14T06:15:34.429Z,11.51
2022-10-14T06:16:34.428Z,11.47
2022-10-14T06:17:34.462Z,11.54
2022-10-14T06:18:34.424Z,11.55
2022-10-14T06:19:34.415Z,11.50
2022-10-14T06:20:34.413Z,11.50
2022-10-14T06:21:34.420Z,11.57
2022-10-14T06:22:34.393Z,11.48
2022-10-14T06:23:34.401Z,11.51
2022-10-14T06:24:34.401Z,11.48
2022-10-14T06:25:34.387Z,11.51
2022-10-14T06:26:34.385Z,11.48
2022-10-14T06:27:34.398Z,11.62
2022-10-14T06:28:34.411Z,11.54
2022-10-14T06:29:34.422Z,11.52
2022-10-14T06:30:34.395Z,11.59
2022-10-14T06:31:34.400Z,11.62
2022-10-14T06:32:34.363Z,11.59
2022-10-14T06:33:34.359Z,11.63
2022-10-14T06:34:34.347Z,11.65
2022-10-14T06:35:34.369Z,11.62
2022-10-14T06:36:34.348Z,11.60
2022-10-14T06:37:34.347Z,11.62
2022-10-14T06:38:34.354Z,11.63
2022-10-14T06:39:34.342Z,11.57
2022-10-14T06:40:34.365Z,11.57
2022-10-14T06:41:34.333Z,11.65
2022-10-14T06:42:34.408Z,11.59
2022-10-14T06:43:34.308Z,11.60
2022-10-14T06:44:34.313Z,11.57
2022-10-14T06:45:34.303Z,11.66
2022-10-14T06:46:34.331Z,11.69
2022-10-14T06:47:34.299Z,11.69
2022-10-14T06:48:34.293Z,11.63
2022-10-14T06:49:34.289Z,11.70
2022-10-14T06:50:34.293Z,11.75
2022-10-14T06:51:34.282Z,11.63
2022-10-14T06:52:34.279Z,11.72
2022-10-14T06:53:34.283Z,11.66
2022-10-14T06:54:38.864Z,11.68
2022-10-14T06:55:34.271Z,11.63
2022-10-14T06:56:34.300Z,11.75
2022-10-14T06:57:34.269Z,11.75
2022-10-14T06:58:34.260Z,11.62
2022-10-14T06:59:34.261Z,11.72
2022-10-14T07:00:34.329Z,11.77
2022-10-14T07:01:34.291Z,11.63
2022-10-14T07:02:34.258Z,11.65
2022-10-14T07:03:34.237Z,11.68
2022-10-14T07:04:34.225Z,11.65
2022-10-14T07:05:34.237Z,11.77
2022-10-14T07:06:34.226Z,11.69
2022-10-14T07:07:34.294Z,11.70
2022-10-14T07:08:34.238Z,11.70
2022-10-14T07:09:34.215Z,11.69
2022-10-14T07:10:34.207Z,11.73
2022-10-14T07:11:34.207Z,11.72
2022-10-14T07:12:34.203Z,11.73
2022-10-14T07:13:34.203Z,11.77
2022-10-14T07:14:34.190Z,11.80
2022-10-14T07:15:36.316Z,11.81
2022-10-14T07:16:34.181Z,11.84
2022-10-14T07:17:34.177Z,11.83
2022-10-14T07:18:34.176Z,11.83
2022-10-14T07:19:34.175Z,11.83
2022-10-14T07:20:34.184Z,11.90
2022-10-14T07:21:34.155Z,11.87
2022-10-14T07:22:38.418Z,11.97
2022-10-14T07:23:34.169Z,11.95
2022-10-14T07:24:34.154Z,11.95
2022-10-14T07:25:34.153Z,11.97
2022-10-14T07:26:34.137Z,11.99
2022-10-14T07:27:34.137Z,12.02
2022-10-14T07:28:34.320Z,12.00
2022-10-14T07:29:34.131Z,12.07
2022-10-14T07:30:34.142Z,12.00
2022-10-14T07:31:34.133Z,11.95
2022-10-14T07:32:34.120Z,12.03
2022-10-14T07:33:34.240Z,12.09
2022-10-14T07:34:34.112Z,12.06
2022-10-14T07:35:34.139Z,12.17
2022-10-14T07:36:34.103Z,12.12
2022-10-14T07:37:34.116Z,12.12
2022-10-14T07:38:34.107Z,12.04
2022-10-14T07:39:34.136Z,12.18
2022-10-14T07:40:34.097Z,12.20
2022-10-14T07:41:34.090Z,12.15
2022-10-14T07:42:34.089Z,12.13
2022-10-14T07:44:34.133Z,12.12
2022-10-14T07:45:34.131Z,12.21
2022-10-14T07:46:34.116Z,12.17
2022-10-14T07:47:34.116Z,12.20
2022-10-14T07:48:45.277Z,12.25
2022-10-14T07:49:34.112Z,12.18
2022-10-14T07:50:35.116Z,12.22
2022-10-14T07:51:34.101Z,12.18
2022-10-14T07:52:34.102Z,12.22
2022-10-14T07:53:34.102Z,12.36
2022-10-14T07:54:34.102Z,12.31
2022-10-14T07:55:34.098Z,12.28
2022-10-14T07:56:35.149Z,12.40
2022-10-14T07:57:34.085Z,12.45
2022-10-14T07:58:34.076Z,12.40
2022-10-14T07:59:34.083Z,12.50
2022-10-14T08:00:34.090Z,12.46
2022-10-14T08:01:34.091Z,12.55
2022-10-14T08:02:35.090Z,12.58
2022-10-14T08:03:34.070Z,12.62
2022-10-14T08:04:34.074Z,12.65
2022-10-14T08:05:38.222Z,12.67
2022-10-14T08:06:34.071Z,12.76
2022-10-14T08:07:34.058Z,12.82
2022-10-14T08:08:35.076Z,12.83
2022-10-14T08:09:34.052Z,12.86
2022-10-14T08:10:34.043Z,12.90
2022-10-14T08:11:34.028Z,12.98
2022-10-14T08:12:34.036Z,13.08
2022-10-14T08:13:34.039Z,13.33
2022-10-14T08:14:35.037Z,13.42
2022-10-14T08:15:34.021Z,13.50
2022-10-14T08:16:34.025Z,13.50
2022-10-14T08:17:34.037Z,13.68
2022-10-14T08:18:34.043Z,13.77
2022-10-14T08:19:34.037Z,13.79
2022-10-14T08:20:35.067Z,13.86
2022-10-14T08:21:34.012Z,14.05
2022-10-14T08:22:34.023Z,14.17
2022-10-14T08:23:34.015Z,14.35
2022-10-14T08:24:34.018Z,14.43
2022-10-14T08:25:34.020Z,14.60
2022-10-14T08:26:35.053Z,14.60
2022-10-14T08:27:34.021Z,14.78
2022-10-14T08:28:34.117Z,14.91
2022-10-14T08:29:34.056Z,15.09
2022-10-14T08:30:34.040Z,15.17
2022-10-14T08:31:34.027Z,15.29
2022-10-14T08:32:35.045Z,15.52
2022-10-14T08:33:34.009Z,15.58
2022-10-14T08:34:34.018Z,15.72
2022-10-14T08:35:34.018Z,15.80
2022-10-14T08:36:34.030Z,15.92
2022-10-14T08:37:34.026Z,15.94
2022-10-14T08:38:35.063Z,15.98
2022-10-14T08:39:34.072Z,15.91
2022-10-14T08:40:34.049Z,15.98
2022-10-14T08:41:34.060Z,16.01
2022-10-14T08:42:34.050Z,15.95
2022-10-14T08:43:34.066Z,15.95
2022-10-14T08:44:35.081Z,15.83
2022-10-14T08:45:34.077Z,15.84
2022-10-14T08:46:34.069Z,15.82
2022-10-14T08:47:34.085Z,15.73
2022-10-14T08:48:34.085Z,15.58
2022-10-14T08:49:34.096Z,15.61
2022-10-14T08:50:35.111Z,15.49
2022-10-14T08:51:34.095Z,15.43
2022-10-14T08:52:37.547Z,15.35
2022-10-14T08:53:34.108Z,15.35
2022-10-14T08:54:34.105Z,15.36
2022-10-14T08:55:34.108Z,15.36
2022-10-14T08:56:35.116Z,15.35
2022-10-14T08:57:34.106Z,15.31
2022-10-14T08:58:34.115Z,15.35
2022-10-14T08:59:34.124Z,15.35
2022-10-14T09:00:34.134Z,15.36
2022-10-14T09:01:34.215Z,15.37
2022-10-14T09:02:35.145Z,15.40
2022-10-14T09:03:34.128Z,15.36
2022-10-14T09:04:34.127Z,15.36
2022-10-14T09:05:34.117Z,15.39
2022-10-14T09:06:34.124Z,15.29
2022-10-14T09:07:34.132Z,15.22
2022-10-14T09:08:35.145Z,15.36
2022-10-14T09:09:34.135Z,15.36
2022-10-14T09:10:34.137Z,15.39
2022-10-14T09:11:34.506Z,15.39
2022-10-14T09:12:34.168Z,15.29
2022-10-14T09:13:34.128Z,15.25
2022-10-14T09:14:35.161Z,15.28
2022-10-14T09:15:34.128Z,15.37
2022-10-14T09:16:34.129Z,15.29
2022-10-14T09:17:37.021Z,15.29
2022-10-14T09:18:34.139Z,15.31
2022-10-14T09:19:34.139Z,15.33
2022-10-14T09:20:35.156Z,15.43
2022-10-14T09:21:51.702Z,15.40
2022-10-14T09:22:34.146Z,15.49
2022-10-14T09:23:34.133Z,15.51
2022-10-14T09:24:34.133Z,15.43
2022-10-14T09:25:34.129Z,15.46
2022-10-14T09:26:35.149Z,15.40
2022-10-14T09:27:34.235Z,15.51
2022-10-14T09:28:34.180Z,15.47
2022-10-14T09:29:34.152Z,15.49
2022-10-14T09:30:34.162Z,15.49
2022-10-14T09:32:35.146Z,15.39
2022-10-14T09:33:37.104Z,15.35
2022-10-14T09:34:34.145Z,15.36
2022-10-14T09:35:34.120Z,15.40
2022-10-14T09:36:34.126Z,15.35
2022-10-14T09:37:34.150Z,15.36
2022-10-14T09:38:35.133Z,15.40
2022-10-14T09:39:34.125Z,15.33
2022-10-14T09:40:34.121Z,15.44
2022-10-14T09:41:34.154Z,15.47
2022-10-14T09:42:34.132Z,15.55
2022-10-14T09:43:34.212Z,15.67
2022-10-14T09:44:35.148Z,15.77
2022-10-14T09:45:34.112Z,15.75
2022-10-14T09:46:34.130Z,15.86
2022-10-14T09:47:34.131Z,15.72
2022-10-14T09:48:34.144Z,15.80
2022-10-14T09:49:34.115Z,15.75
2022-10-14T09:50:35.130Z,15.86
2022-10-14T09:51:34.119Z,15.80
2022-10-14T09:52:34.137Z,15.82
2022-10-14T09:53:34.126Z,15.76
2022-10-14T09:54:34.119Z,15.73
2022-10-14T09:55:34.118Z,15.75
2022-10-14T09:56:39.040Z,15.80
2022-10-14T09:57:34.134Z,15.86
2022-10-14T09:58:34.113Z,15.88
2022-10-14T09:59:34.137Z,15.90
2022-10-14T10:00:34.122Z,15.95
2022-10-14T10:01:34.115Z,16.00
2022-10-14T10:02:35.125Z,15.94
2022-10-14T10:03:34.113Z,15.97
2022-10-14T10:04:34.124Z,15.84
2022-10-14T10:05:34.108Z,15.73
2022-10-14T10:06:34.108Z,15.83
2022-10-14T10:07:34.109Z,15.88
2022-10-14T10:08:35.122Z,15.83
2022-10-14T10:09:34.112Z,15.80
2022-10-14T10:10:34.110Z,15.72
2022-10-14T10:11:34.127Z,15.67
2022-10-14T10:12:34.105Z,15.64
2022-10-14T10:13:34.108Z,15.70
2022-10-14T10:14:35.116Z,15.67
2022-10-14T10:15:34.106Z,15.73
2022-10-14T10:16:34.112Z,15.67
2022-10-14T10:17:34.106Z,15.59
2022-10-14T10:18:34.108Z,15.64
2022-10-14T10:19:34.107Z,15.59
2022-10-14T10:20:35.124Z,15.65
2022-10-14T10:21:34.105Z,15.73
2022-10-14T10:22:34.109Z,15.92
2022-10-14T10:23:34.083Z,15.82
2022-10-14T10:24:34.095Z,15.97
2022-10-14T10:25:34.099Z,16.08
2022-10-14T10:26:35.122Z,16.05
2022-10-14T10:27:34.082Z,16.23
2022-10-14T10:28:34.114Z,16.26
2022-10-14T10:29:34.093Z,16.32
2022-10-14T10:30:34.091Z,16.31
2022-10-14T10:31:34.273Z,16.35
2022-10-14T10:32:35.106Z,16.42
2022-10-14T10:33:34.086Z,16.33
2022-10-14T10:34:34.107Z,16.53
2022-10-14T10:35:34.084Z,16.47
2022-10-14T10:36:34.161Z,16.51
2022-10-14T10:37:34.090Z,16.60
2022-10-14T10:38:35.106Z,16.66
2022-10-14T10:39:34.078Z,16.54
2022-10-14T10:40:34.138Z,16.57
2022-10-14T10:41:34.079Z,16.58
2022-10-14T10:42:34.082Z,16.43
2022-10-14T10:43:34.107Z,16.42
2022-10-14T10:44:35.078Z,16.38
2022-10-14T10:45:36.538Z,16.32
2022-10-14T10:46:34.127Z,16.24
2022-10-14T10:47:34.068Z,16.23
2022-10-14T10:48:34.072Z,16.24
2022-10-14T10:49:34.098Z,16.15
2022-10-14T10:50:35.078Z,16.16
2022-10-14T10:51:34.070Z,16.09
2022-10-14T10:52:34.106Z,16.08
2022-10-14T10:53:34.080Z,16.08
2022-10-14T10:54:34.061Z,16.10
2022-10-14T10:55:34.121Z,16.15
2022-10-14T10:56:35.079Z,16.09
2022-10-14T10:57:34.063Z,16.10
2022-10-14T10:58:34.064Z,16.23
2022-10-14T10:59:34.063Z,16.12
2022-10-14T11:00:34.079Z,16.16
2022-10-14T11:01:34.090Z,16.16
2022-10-14T11:02:35.071Z,16.24
2022-10-14T11:03:34.108Z,16.23
2022-10-14T11:04:34.098Z,16.23
2022-10-14T11:05:34.068Z,16.17
2022-10-14T11:06:34.178Z,16.16
2022-10-14T11:07:34.075Z,16.17
2022-10-14T11:08:35.086Z,16.13
2022-10-14T11:09:34.073Z,16.13
2022-10-14T11:10:34.076Z,16.05
2022-10-14T11:11:34.063Z,16.08
2022-10-14T11:12:34.068Z,16.12
2022-10-14T11:13:34.062Z,16.08
2022-10-14T11:14:35.088Z,16.09
2022-10-14T11:15:34.058Z,16.05
2022-10-14T11:16:34.060Z,16.12
2022-10-14T11:17:34.094Z,16.05
2022-10-14T11:18:34.080Z,16.12
2022-10-14T11:19:34.046Z,16.21
2022-10-14T11:20:35.070Z,16.17
2022-10-14T11:21:34.080Z,16.26
2022-10-14T11:22:34.074Z,16.26
2022-10-14T11:23:34.067Z,16.28
2022-10-14T11:24:34.058Z,16.32
2022-10-14T11:25:34.054Z,16.24
2022-10-14T11:27:34.063Z,16.38
2022-10-14T11:28:34.091Z,16.35
2022-10-14T11:29:34.116Z,16.39
2022-10-14T11:30:34.075Z,16.43
2022-10-14T11:31:34.088Z,16.33
2022-10-14T11:32:35.097Z,16.46
2022-10-14T11:33:38.896Z,16.39
2022-10-14T11:34:34.049Z,16.33
2022-10-14T11:36:34.069Z,16.35
2022-10-14T11:37:34.057Z,16.36
2022-10-14T11:39:35.682Z,16.26
2022-10-14T11:40:34.065Z,16.33
2022-10-14T11:41:34.052Z,16.24
2022-10-14T11:42:34.046Z,16.26
2022-10-14T11:43:34.050Z,16.28
2022-10-14T11:45:34.044Z,16.29
2022-10-14T11:46:34.051Z,16.28
2022-10-14T11:47:34.061Z,16.28
2022-10-14T11:48:34.045Z,16.23
2022-10-14T11:49:34.043Z,16.21
2022-10-14T11:50:35.053Z,16.23
2022-10-14T11:51:35.939Z,16.17
2022-10-14T11:52:34.043Z,16.21
2022-10-14T11:53:34.069Z,16.28
2022-10-14T11:54:34.043Z,16.16
2022-10-14T11:55:34.063Z,16.16
2022-10-14T11:56:35.060Z,16.17
2022-10-14T11:57:34.135Z,16.16
2022-10-14T11:58:34.038Z,16.16
2022-10-14T11:59:34.077Z,16.23
2022-10-14T12:00:34.067Z,16.20
2022-10-14T12:01:37.234Z,16.24
2022-10-14T12:02:35.107Z,16.21
2022-10-14T12:03:34.040Z,16.26
2022-10-14T12:04:34.026Z,16.31
2022-10-14T12:05:34.059Z,16.33
2022-10-14T12:06:34.031Z,16.35
2022-10-14T12:07:34.033Z,16.28
2022-10-14T12:08:35.868Z,16.26
2022-10-14T12:09:34.149Z,16.31
2022-10-14T12:10:34.032Z,16.32
2022-10-14T12:11:34.059Z,16.38
2022-10-14T12:12:34.034Z,16.32
2022-10-14T12:13:34.042Z,16.38
2022-10-14T12:14:35.039Z,16.33
2022-10-14T12:15:34.034Z,16.28
2022-10-14T12:16:34.017Z,16.33
2022-10-14T12:17:34.076Z,16.26
2022-10-14T12:18:34.014Z,16.31
2022-10-14T12:19:34.034Z,16.31
2022-10-14T12:20:35.048Z,16.23
2022-10-14T12:21:34.035Z,16.32
2022-10-14T12:22:34.013Z,16.33
2022-10-14T12:23:34.016Z,16.31
2022-10-14T12:24:34.013Z,16.31
2022-10-14T12:25:34.079Z,16.33
2022-10-14T12:26:35.058Z,16.38
2022-10-14T12:27:34.036Z,16.35
2022-10-14T12:28:34.072Z,16.36
2022-10-14T12:29:34.037Z,16.35
2022-10-14T12:30:34.044Z,16.38
2022-10-14T12:31:34.019Z,16.36
2022-10-14T12:32:35.016Z,16.36
2022-10-14T12:33:34.031Z,16.39
2022-10-14T12:34:34.011Z,16.33
2022-10-14T12:35:34.018Z,16.42
2022-10-14T12:36:34.024Z,16.39
2022-10-14T12:37:34.260Z,16.41
2022-10-14T12:38:35.027Z,16.46
2022-10-14T12:39:34.024Z,16.42
2022-10-14T12:40:34.004Z,16.41
2022-10-14T12:41:34.053Z,16.42
2022-10-14T12:42:34.845Z,16.46
2022-10-14T12:43:34.031Z,16.46
2022-10-14T12:44:35.037Z,16.47
2022-10-14T12:45:34.221Z,16.41
2022-10-14T12:46:33.989Z,16.41
2022-10-14T12:47:34.018Z,16.46
2022-10-14T12:48:34.005Z,16.46
2022-10-14T12:49:34.028Z,16.43
2022-10-14T12:50:35.004Z,16.47
2022-10-14T12:51:33.998Z,16.43
2022-10-14T12:52:34.024Z,16.38
2022-10-14T12:53:34.005Z,16.46
2022-10-14T12:54:34.013Z,16.49
2022-10-14T12:55:34.021Z,16.46
2022-10-14T12:56:35.004Z,16.47
2022-10-14T12:57:37.322Z,16.47
2022-10-14T12:58:33.989Z,16.51